createdAt,value
2018-07-06T00:00:37.097Z,7.43
2018-07-06T00:02:50.672Z,6.10
2018-07-06T00:05:04.260Z,4.97
2018-07-06T00:07:17.886Z,5.57
2018-07-06T00:09:31.471Z,4.97
2018-07-06T00:11:45.289Z,9.70
2018-07-06T00:13:58.883Z,5.50
2018-07-06T00:16:12.561Z,5.23
2018-07-06T00:18:26.241Z,9.33
2018-07-06T00:20:39.853Z,6.07
2018-07-06T00:22:53.565Z,7.07
2018-07-06T00:25:07.226Z,8.33
2018-07-06T00:27:20.902Z,12.40
2018-07-06T00:29:34.494Z,6.33
2018-07-06T00:31:48.028Z,8.00
2018-07-06T00:34:01.686Z,7.43
2018-07-06T00:36:15.291Z,6.17
2018-07-06T00:38:28.973Z,6.30
2018-07-06T00:40:42.537Z,5.40
2018-07-06T00:42:56.217Z,7.07
2018-07-06T00:45:09.882Z,4.23
2018-07-06T00:47:23.525Z,5.43
2018-07-06T00:49:37.218Z,5.80
2018-07-06T00:51:50.824Z,6.27
2018-07-06T00:54:04.514Z,4.03
2018-07-06T00:56:18.215Z,5.03
2018-07-06T00:58:32.060Z,7.23
2018-07-06T01:00:45.711Z,6.80
2018-07-06T01:02:59.841Z,4.67
2018-07-06T01:05:13.576Z,5.37
2018-07-06T01:07:27.400Z,6.07
2018-07-06T01:09:41.036Z,7.47
2018-07-06T01:11:54.699Z,5.13
2018-07-06T01:14:08.354Z,6.00
2018-07-06T01:16:22.061Z,4.83
2018-07-06T01:18:35.786Z,6.90
2018-07-06T01:20:49.588Z,7.93
2018-07-06T01:23:03.324Z,6.47
2018-07-06T01:25:17.063Z,9.40
2018-07-06T01:27:30.826Z,7.20
2018-07-06T01:29:44.402Z,7.97
2018-07-06T01:31:58.051Z,7.40
2018-07-06T01:34:11.796Z,6.50
2018-07-06T01:36:25.392Z,6.87
2018-07-06T01:38:38.964Z,5.60
2018-07-06T01:40:52.681Z,5.67
2018-07-06T01:43:06.457Z,6.90
2018-07-06T01:45:20.035Z,18.63
2018-07-06T01:47:33.676Z,8.03
2018-07-06T01:49:47.455Z,11.60
2018-07-06T01:52:01.052Z,6.90
2018-07-06T01:54:14.708Z,7.70
2018-07-06T01:56:28.381Z,6.90
2018-07-06T01:58:41.996Z,8.80
2018-07-06T02:00:55.736Z,10.40
2018-07-06T02:03:09.517Z,10.97
2018-07-06T02:05:23.212Z,9.33
2018-07-06T02:07:36.839Z,10.43
2018-07-06T02:09:50.443Z,10.93
2018-07-06T02:12:03.965Z,6.07
2018-07-06T02:14:17.749Z,10.00
2018-07-06T02:16:31.344Z,7.80
2018-07-06T02:18:45.126Z,6.70
2018-07-06T02:20:58.812Z,7.83
2018-07-06T02:23:12.611Z,13.23
2018-07-06T02:25:26.260Z,6.70
2018-07-06T02:27:39.928Z,7.03
2018-07-06T02:29:53.668Z,6.13
2018-07-06T02:32:07.258Z,6.63
2018-07-06T02:34:20.945Z,6.20
2018-07-06T02:36:34.652Z,11.33
2018-07-06T02:38:48.531Z,6.07
2018-07-06T02:41:02.181Z,7.57
2018-07-06T02:43:15.848Z,7.93
2018-07-06T02:45:29.612Z,7.40
2018-07-06T02:47:43.196Z,9.20
2018-07-06T02:49:56.780Z,6.90
2018-07-06T02:52:10.602Z,6.77
2018-07-06T02:54:24.209Z,7.43
2018-07-06T02:56:38.003Z,7.03
2018-07-06T02:58:51.675Z,7.03
2018-07-06T03:01:05.312Z,7.53
2018-07-06T03:03:19.064Z,9.97
2018-07-06T03:05:32.596Z,8.97
2018-07-06T03:07:46.146Z,7.63
2018-07-06T03:09:59.878Z,7.63
2018-07-06T03:12:13.629Z,11.07
2018-07-06T03:14:27.378Z,7.57
2018-07-06T03:16:40.984Z,7.03
2018-07-06T03:18:54.774Z,11.33
2018-07-06T03:21:08.305Z,12.90
2018-07-06T03:23:22.060Z,11.40
2018-07-06T03:25:35.710Z,10.37
2018-07-06T03:27:49.463Z,8.10
2018-07-06T03:30:03.113Z,11.90
2018-07-06T03:32:17.053Z,8.30
2018-07-06T03:34:30.650Z,10.37
2018-07-06T03:36:44.248Z,11.90
2018-07-06T03:38:57.937Z,9.70
2018-07-06T03:41:11.590Z,13.33
2018-07-06T03:43:25.269Z,10.57
2018-07-06T03:45:39.133Z,10.07
2018-07-06T03:47:52.852Z,14.37
2018-07-06T03:50:06.433Z,11.60
2018-07-06T03:52:20.137Z,8.77
2018-07-06T03:54:33.985Z,10.00
2018-07-06T03:56:47.616Z,15.07
2018-07-06T03:59:01.324Z,14.40
2018-07-06T04:01:15.070Z,10.10
2018-07-06T04:03:28.871Z,9.30
2018-07-06T04:05:42.683Z,9.90
2018-07-06T04:07:56.333Z,10.47
2018-07-06T04:10:10.081Z,10.77
2018-07-06T04:12:23.909Z,9.03
2018-07-06T04:14:37.456Z,12.80
2018-07-06T04:16:51.166Z,8.60
2018-07-06T04:19:09.693Z,11.07
2018-07-06T04:21:23.485Z,11.73
2018-07-06T04:23:37.092Z,13.67
2018-07-06T04:25:50.612Z,10.37
2018-07-06T04:28:04.408Z,10.33
2018-07-06T04:30:18.022Z,13.50
2018-07-06T04:32:32.305Z,12.83
2018-07-06T04:34:45.816Z,10.20
2018-07-06T04:36:59.458Z,13.07
2018-07-06T04:39:13.054Z,8.77
2018-07-06T04:41:26.625Z,11.30
2018-07-06T04:43:40.297Z,12.60
2018-07-06T04:45:48.044Z,11.70
2018-07-06T04:48:01.708Z,9.53
2018-07-06T04:50:15.525Z,10.63
2018-07-06T04:52:30.045Z,11.00
2018-07-06T04:54:43.861Z,9.57
2018-07-06T04:56:51.722Z,13.57
2018-07-06T04:59:05.283Z,12.87
2018-07-06T05:01:19.011Z,15.00
2018-07-06T05:03:32.762Z,15.40
2018-07-06T05:05:46.503Z,14.73
2018-07-06T05:08:00.485Z,13.53
2018-07-06T05:10:14.121Z,14.90
2018-07-06T05:12:27.692Z,13.83
2018-07-06T05:14:41.366Z,9.33
2018-07-06T05:16:55.049Z,19.03
2018-07-06T05:19:08.638Z,10.97
2018-07-06T05:21:22.292Z,11.77
2018-07-06T05:23:36.176Z,13.03
2018-07-06T05:25:49.945Z,16.23
2018-07-06T05:28:04.688Z,10.10
2018-07-06T05:30:18.589Z,10.30
2018-07-06T05:32:32.821Z,10.10
2018-07-06T05:34:47.575Z,15.43
2018-07-06T05:37:02.821Z,10.90
2018-07-06T05:39:24.599Z,13.23
2018-07-06T05:41:39.824Z,10.73
2018-07-06T05:43:55.556Z,14.90
2018-07-06T05:46:09.363Z,11.57
2018-07-06T05:48:23.060Z,18.37
2018-07-06T05:50:38.012Z,15.17
2018-07-06T05:52:51.862Z,13.33
2018-07-06T05:55:05.511Z,12.20
2018-07-06T05:57:19.260Z,10.23
2018-07-06T05:59:33.025Z,11.03
2018-07-06T06:01:46.749Z,11.27
2018-07-06T06:04:00.507Z,13.77
2018-07-06T06:06:14.261Z,20.17
2018-07-06T06:08:15.697Z,12.77
2018-07-06T06:10:17.757Z,13.17
2018-07-06T06:12:20.339Z,15.77
2018-07-06T06:14:22.916Z,18.10
2018-07-06T06:16:25.260Z,11.20
2018-07-06T06:18:32.922Z,16.20
2018-07-06T06:20:41.018Z,18.97
2018-07-06T06:22:49.241Z,19.07
2018-07-06T06:24:51.377Z,17.90
2018-07-06T06:26:54.054Z,18.87
2018-07-06T06:28:56.101Z,20.40
2018-07-06T06:30:58.194Z,15.77
2018-07-06T06:33:00.311Z,14.43
2018-07-06T06:35:03.746Z,27.47
2018-07-06T06:37:06.875Z,15.40
2018-07-06T06:39:08.969Z,25.20
2018-07-06T06:41:11.036Z,19.00
2018-07-06T06:43:13.161Z,19.53
2018-07-06T06:45:24.719Z,27.87
2018-07-06T06:47:27.033Z,17.60
2018-07-06T06:49:30.419Z,25.87
2018-07-06T06:51:36.714Z,18.40
2018-07-06T06:53:39.297Z,20.53
2018-07-06T06:55:41.410Z,16.53
2018-07-06T06:57:43.480Z,20.93
2018-07-06T06:59:48.411Z,19.80
2018-07-06T07:01:50.526Z,21.87
2018-07-06T07:03:52.589Z,18.63
2018-07-06T07:05:54.672Z,18.30
2018-07-06T07:07:56.738Z,23.30
2018-07-06T07:09:58.834Z,23.30
2018-07-06T07:12:00.884Z,26.83
2018-07-06T07:14:03.370Z,24.53
2018-07-06T07:16:05.462Z,29.00
2018-07-06T07:18:07.566Z,20.30
2018-07-06T07:20:09.662Z,21.27
2018-07-06T07:22:11.732Z,21.50
2018-07-06T07:24:13.981Z,18.57
2018-07-06T07:26:16.061Z,17.97
2018-07-06T07:28:18.135Z,19.27
2018-07-06T07:30:20.248Z,16.90
2018-07-06T07:32:22.367Z,24.20
2018-07-06T07:34:24.429Z,14.70
2018-07-06T07:36:26.544Z,16.80
2018-07-06T07:38:28.637Z,18.47
2018-07-06T07:40:30.692Z,18.03
2018-07-06T07:42:32.760Z,18.93
2018-07-06T07:44:34.833Z,21.00
2018-07-06T07:46:37.004Z,18.50
2018-07-06T07:48:39.066Z,15.63
2018-07-06T07:50:52.774Z,20.10
2018-07-06T07:53:06.583Z,15.60
2018-07-06T07:55:08.652Z,17.43
2018-07-06T07:57:10.668Z,16.40
2018-07-06T07:59:12.736Z,14.17
2018-07-06T08:01:14.879Z,17.70
2018-07-06T08:03:16.852Z,13.30
2018-07-06T08:05:18.930Z,12.93
2018-07-06T08:07:21.146Z,12.13
2018-07-06T08:09:23.647Z,16.00
2018-07-06T08:11:25.728Z,12.67
2018-07-06T08:13:27.831Z,15.83
2018-07-06T08:15:29.934Z,12.10
2018-07-06T08:17:32.042Z,14.00
2018-07-06T08:19:34.218Z,8.17
2018-07-06T08:21:36.475Z,19.07
2018-07-06T08:23:38.513Z,13.40
2018-07-06T08:25:40.555Z,11.57
2018-07-06T08:27:42.672Z,13.60
2018-07-06T08:29:44.791Z,11.80
2018-07-06T08:31:47.044Z,10.93
2018-07-06T08:34:00.621Z,12.03
2018-07-06T08:36:14.021Z,10.53
2018-07-06T08:38:16.112Z,11.00
2018-07-06T08:40:18.762Z,13.87
2018-07-06T08:42:21.117Z,14.73
2018-07-06T08:44:23.219Z,10.90
2018-07-06T08:46:25.289Z,15.73
2018-07-06T08:48:27.376Z,11.80
2018-07-06T08:50:29.503Z,12.03
2018-07-06T08:52:31.601Z,9.50
2018-07-06T08:54:33.639Z,12.00
2018-07-06T08:56:35.699Z,16.83
2018-07-06T08:58:37.810Z,11.73
2018-07-06T09:00:39.784Z,12.73
2018-07-06T09:02:41.933Z,13.10
2018-07-06T09:04:44.056Z,10.50
2018-07-06T09:06:46.142Z,9.57
2018-07-06T09:08:48.197Z,8.77
2018-07-06T09:10:50.209Z,9.70
2018-07-06T09:12:52.267Z,8.10
2018-07-06T09:14:54.818Z,11.10
2018-07-06T09:16:56.844Z,8.10
2018-07-06T09:18:58.963Z,10.83
2018-07-06T09:21:00.991Z,12.30
2018-07-06T09:23:03.073Z,10.37
2018-07-06T09:25:06.135Z,11.70
2018-07-06T09:27:08.232Z,9.30
2018-07-06T09:29:10.337Z,6.83
2018-07-06T09:31:12.369Z,7.90
2018-07-06T09:33:14.405Z,9.20
2018-07-06T09:35:16.490Z,10.53
2018-07-06T09:37:18.548Z,10.60
2018-07-06T09:39:20.613Z,8.23
2018-07-06T09:41:22.697Z,7.80
2018-07-06T09:43:24.805Z,13.90
2018-07-06T09:45:26.832Z,8.90
2018-07-06T09:47:28.889Z,8.80
2018-07-06T09:49:30.996Z,8.20
2018-07-06T09:51:33.087Z,7.60
2018-07-06T09:53:35.298Z,7.87
2018-07-06T09:55:37.364Z,6.40
2018-07-06T09:57:39.482Z,7.70
2018-07-06T09:59:41.548Z,7.03
2018-07-06T10:01:43.601Z,10.23
2018-07-06T10:03:45.717Z,6.10
2018-07-06T10:05:47.932Z,7.90
2018-07-06T10:07:49.923Z,9.37
2018-07-06T10:09:52.055Z,7.20
2018-07-06T10:11:54.090Z,4.73
2018-07-06T10:13:56.148Z,4.90
2018-07-06T10:15:58.305Z,5.40
2018-07-06T10:18:00.329Z,4.53
2018-07-06T10:20:02.386Z,4.93
2018-07-06T10:22:05.010Z,7.07
2018-07-06T10:24:07.054Z,3.87
2018-07-06T10:26:09.137Z,4.20
2018-07-06T10:28:20.619Z,6.30
2018-07-06T10:30:33.853Z,7.73
2018-07-06T10:32:35.999Z,9.00
2018-07-06T10:34:38.065Z,6.80
2018-07-06T10:36:40.153Z,7.10
2018-07-06T10:38:42.258Z,11.67
2018-07-06T10:40:44.373Z,6.47
2018-07-06T10:42:46.438Z,7.60
2018-07-06T10:44:48.516Z,4.00
2018-07-06T10:46:50.590Z,3.73
2018-07-06T10:48:52.661Z,5.27
2018-07-06T10:50:54.704Z,3.60
2018-07-06T10:52:56.733Z,4.30
2018-07-06T10:54:58.764Z,8.03
2018-07-06T10:57:00.776Z,6.17
2018-07-06T10:59:02.884Z,8.70
2018-07-06T11:01:05.022Z,5.20
2018-07-06T11:03:07.068Z,6.73
2018-07-06T11:05:09.096Z,6.03
2018-07-06T11:07:11.153Z,9.70
2018-07-06T11:09:13.200Z,4.33
2018-07-06T11:11:15.224Z,3.30
2018-07-06T11:13:17.240Z,8.90
2018-07-06T11:15:19.264Z,4.33
2018-07-06T11:17:21.257Z,5.73
2018-07-06T11:19:23.267Z,5.67
2018-07-06T11:21:25.360Z,6.53
2018-07-06T11:23:27.382Z,4.93
2018-07-06T11:25:29.472Z,4.50
2018-07-06T11:27:31.431Z,5.73
2018-07-06T11:29:33.448Z,4.90
2018-07-06T11:31:35.884Z,4.70
2018-07-06T11:33:38.017Z,5.37
2018-07-06T11:35:40.102Z,5.80
2018-07-06T11:37:42.122Z,5.23
2018-07-06T11:39:44.144Z,8.97
2018-07-06T11:41:46.173Z,4.87
2018-07-06T11:43:48.539Z,6.27
2018-07-06T11:45:50.561Z,4.27
2018-07-06T11:47:52.600Z,4.30
2018-07-06T11:49:54.623Z,5.00
2018-07-06T11:51:56.645Z,10.17
2018-07-06T11:53:58.657Z,9.20
2018-07-06T11:56:00.703Z,5.30
2018-07-06T11:58:02.716Z,5.83
2018-07-06T12:00:04.768Z,9.90
2018-07-06T12:02:06.797Z,8.17
2018-07-06T12:04:08.885Z,5.73
2018-07-06T12:06:10.770Z,9.20
2018-07-06T12:08:12.833Z,10.50
2018-07-06T12:10:14.854Z,9.53
2018-07-06T12:12:16.957Z,5.93
2018-07-06T12:14:18.993Z,4.20
2018-07-06T12:16:21.043Z,5.13
2018-07-06T12:18:23.136Z,8.23
2018-07-06T12:20:25.226Z,5.10
2018-07-06T12:22:27.290Z,7.77
2018-07-06T12:24:29.350Z,5.37
2018-07-06T12:26:31.356Z,8.73
2018-07-06T12:28:33.389Z,7.13
2018-07-06T12:30:35.450Z,7.17
2018-07-06T12:32:37.565Z,4.00
2018-07-06T12:34:39.692Z,9.93
2018-07-06T12:36:41.870Z,7.10
2018-07-06T12:38:43.880Z,7.53
2018-07-06T12:40:45.892Z,5.10
2018-07-06T12:42:47.964Z,6.83
2018-07-06T12:44:49.989Z,7.90
2018-07-06T12:46:52.105Z,6.00
2018-07-06T12:48:54.221Z,6.20
2018-07-06T12:50:56.324Z,6.33
2018-07-06T12:52:58.431Z,7.40
2018-07-06T12:55:00.501Z,22.97
2018-07-06T12:57:02.598Z,20.10
2018-07-06T12:59:04.719Z,7.93
2018-07-06T13:01:06.988Z,6.40
2018-07-06T13:03:09.086Z,14.03
2018-07-06T13:05:11.292Z,7.80
2018-07-06T13:07:13.348Z,12.00
2018-07-06T13:09:15.432Z,12.50
2018-07-06T13:11:17.630Z,18.33
2018-07-06T13:13:19.898Z,6.37
2018-07-06T13:15:22.188Z,10.77
2018-07-06T13:17:24.253Z,11.27
2018-07-06T13:19:26.501Z,9.63
2018-07-06T13:21:28.686Z,11.20
2018-07-06T13:23:30.728Z,5.87
2018-07-06T13:25:32.816Z,9.13
2018-07-06T13:27:34.976Z,6.23
2018-07-06T13:29:37.049Z,10.90
2018-07-06T13:31:39.152Z,10.40
2018-07-06T13:33:41.323Z,5.73
2018-07-06T13:35:43.552Z,17.00
2018-07-06T13:37:45.626Z,5.37
2018-07-06T13:39:47.754Z,9.20
2018-07-06T13:41:49.890Z,5.87
2018-07-06T13:43:52.058Z,16.37
2018-07-06T13:45:54.266Z,9.87
2018-07-06T13:47:56.421Z,6.70
2018-07-06T13:49:58.905Z,4.77
2018-07-06T13:52:01.257Z,7.33
2018-07-06T13:54:03.395Z,3.00
2018-07-06T13:56:05.532Z,5.30
2018-07-06T13:58:07.614Z,21.30
2018-07-06T14:00:09.688Z,6.53
2018-07-06T14:02:11.713Z,7.30
2018-07-06T14:04:13.720Z,10.90
2018-07-06T14:06:15.738Z,7.27
2018-07-06T14:08:17.806Z,5.93
2018-07-06T14:10:19.852Z,12.20
2018-07-06T14:12:21.934Z,8.03
2018-07-06T14:14:23.996Z,5.10
2018-07-06T14:16:26.027Z,6.53
2018-07-06T14:18:28.230Z,4.90
2018-07-06T14:20:30.268Z,9.07
2018-07-06T14:22:32.325Z,4.70
2018-07-06T14:24:34.317Z,7.33
2018-07-06T14:26:36.349Z,6.10
2018-07-06T14:28:38.378Z,13.50
2018-07-06T14:30:40.396Z,7.60
2018-07-06T14:32:42.465Z,7.27
2018-07-06T14:34:44.513Z,9.83
2018-07-06T14:36:46.665Z,5.37
2018-07-06T14:38:48.810Z,8.40
2018-07-06T14:40:50.948Z,10.87
2018-07-06T14:42:53.014Z,5.93
2018-07-06T14:44:55.358Z,9.53
2018-07-06T14:46:57.508Z,7.07
2018-07-06T14:48:59.888Z,7.20
2018-07-06T14:51:02.090Z,6.20
2018-07-06T14:53:04.168Z,8.20
2018-07-06T14:55:06.325Z,8.83
2018-07-06T14:57:08.457Z,9.00
2018-07-06T14:59:10.496Z,6.80
2018-07-06T15:01:12.662Z,7.27
2018-07-06T15:03:14.684Z,10.33
2018-07-06T15:05:16.772Z,5.70
2018-07-06T15:07:18.868Z,7.97
2018-07-06T15:09:21.034Z,5.97
2018-07-06T15:11:23.035Z,4.70
2018-07-06T15:13:25.078Z,9.23
2018-07-06T15:15:27.100Z,10.40
2018-07-06T15:17:29.173Z,7.53
2018-07-06T15:19:31.172Z,17.23
2018-07-06T15:21:33.233Z,7.87
2018-07-06T15:23:35.265Z,11.63
2018-07-06T15:25:37.284Z,8.17
2018-07-06T15:27:39.321Z,12.10
2018-07-06T15:29:41.353Z,6.90
2018-07-06T15:31:43.389Z,6.90
2018-07-06T15:33:45.430Z,22.30
2018-07-06T15:35:47.472Z,7.30
2018-07-06T15:37:49.558Z,10.73
2018-07-06T15:39:51.569Z,11.93
2018-07-06T15:41:53.598Z,11.10
2018-07-06T15:43:55.661Z,13.03
2018-07-06T15:45:57.684Z,8.60
2018-07-06T15:47:59.710Z,11.80
2018-07-06T15:50:01.823Z,14.20
2018-07-06T15:52:03.856Z,5.57
2018-07-06T15:54:05.881Z,8.07
2018-07-06T15:56:07.903Z,14.23
2018-07-06T15:58:09.977Z,10.73
2018-07-06T16:00:11.998Z,7.53
2018-07-06T16:02:14.058Z,12.93
2018-07-06T16:04:16.138Z,15.03
2018-07-06T16:06:18.186Z,11.07
2018-07-06T16:08:20.220Z,7.80
2018-07-06T16:10:22.265Z,14.10
2018-07-06T16:12:24.281Z,18.87
2018-07-06T16:14:26.297Z,8.07
2018-07-06T16:16:28.329Z,9.77
2018-07-06T16:18:30.348Z,9.30
2018-07-06T16:20:32.517Z,4.87
2018-07-06T16:22:34.562Z,14.93
2018-07-06T16:24:36.588Z,8.57
2018-07-06T16:26:38.605Z,8.53
2018-07-06T16:28:40.628Z,9.90
2018-07-06T16:30:42.661Z,8.27
2018-07-06T16:32:45.020Z,17.63
2018-07-06T16:34:47.154Z,11.27
2018-07-06T16:36:49.169Z,13.93
2018-07-06T16:38:51.196Z,12.57
2018-07-06T16:40:53.230Z,10.00
2018-07-06T16:42:55.256Z,8.70
2018-07-06T16:44:57.292Z,7.07
2018-07-06T16:46:59.315Z,15.10
2018-07-06T16:49:01.340Z,12.20
2018-07-06T16:51:03.372Z,8.03
2018-07-06T16:53:05.534Z,7.53
2018-07-06T16:55:07.584Z,6.80
2018-07-06T16:57:09.586Z,8.37
2018-07-06T16:59:11.619Z,7.90
2018-07-06T17:01:13.696Z,8.07
2018-07-06T17:03:15.709Z,12.87
2018-07-06T17:05:17.758Z,7.07
2018-07-06T17:07:19.782Z,4.80
2018-07-06T17:09:21.936Z,13.67
2018-07-06T17:11:24.833Z,8.80
2018-07-06T17:13:27.112Z,7.93
2018-07-06T17:15:29.132Z,7.00
2018-07-06T17:17:31.135Z,11.50
2018-07-06T17:19:33.165Z,14.60
2018-07-06T17:21:35.215Z,11.83
2018-07-06T17:23:37.284Z,10.67
2018-07-06T17:25:39.308Z,6.83
2018-07-06T17:27:41.353Z,6.70
2018-07-06T17:29:43.372Z,5.87
2018-07-06T17:31:45.384Z,12.10
2018-07-06T17:33:47.556Z,8.03
2018-07-06T17:35:49.596Z,11.10
2018-07-06T17:37:51.817Z,12.83
2018-07-06T17:39:53.852Z,13.67
2018-07-06T17:41:55.877Z,8.87
2018-07-06T17:43:57.899Z,7.03
2018-07-06T17:45:59.950Z,13.50
2018-07-06T17:48:01.981Z,10.50
2018-07-06T17:50:04.004Z,4.97
2018-07-06T17:52:06.015Z,7.60
2018-07-06T17:54:08.069Z,7.40
2018-07-06T17:56:10.088Z,7.67
2018-07-06T17:58:12.104Z,8.57
2018-07-06T18:00:14.140Z,8.77
2018-07-06T18:02:16.148Z,7.53
2018-07-06T18:04:18.154Z,7.60
2018-07-06T18:06:20.167Z,5.67
2018-07-06T18:08:22.206Z,9.27
2018-07-06T18:10:24.217Z,6.20
2018-07-06T18:12:26.246Z,6.67
2018-07-06T18:14:28.313Z,5.40
2018-07-06T18:16:30.520Z,8.53
2018-07-06T18:18:32.661Z,9.73
2018-07-06T18:20:34.745Z,7.93
2018-07-06T18:22:36.824Z,11.17
2018-07-06T18:24:38.905Z,5.40
2018-07-06T18:26:40.939Z,10.50
2018-07-06T18:28:51.467Z,15.13
2018-07-06T18:30:53.632Z,5.47
2018-07-06T18:32:55.676Z,7.73
2018-07-06T18:34:57.796Z,8.23
2018-07-06T18:36:59.804Z,12.40
2018-07-06T18:39:01.986Z,6.77
2018-07-06T18:41:04.000Z,7.10
2018-07-06T18:43:06.086Z,7.93
2018-07-06T18:45:08.120Z,7.23
2018-07-06T18:47:10.179Z,8.07
2018-07-06T18:49:12.236Z,2.87
2018-07-06T18:51:14.343Z,5.90
2018-07-06T18:53:16.358Z,8.30
2018-07-06T18:55:18.519Z,9.90
2018-07-06T18:57:20.532Z,12.97
2018-07-06T18:59:22.557Z,6.03
2018-07-06T19:01:24.588Z,7.87
2018-07-06T19:03:26.889Z,8.20
2018-07-06T19:05:28.995Z,9.83
2018-07-06T19:07:31.047Z,8.17
2018-07-06T19:09:33.161Z,8.33
2018-07-06T19:11:35.260Z,8.40
2018-07-06T19:13:37.329Z,6.23
2018-07-06T19:15:39.536Z,7.37
2018-07-06T19:17:41.729Z,15.50
2018-07-06T19:19:43.785Z,12.67
2018-07-06T19:21:45.863Z,11.63
2018-07-06T19:23:47.982Z,9.83
2018-07-06T19:25:50.185Z,7.03
2018-07-06T19:27:52.214Z,8.70
2018-07-06T19:29:55.333Z,12.10
2018-07-06T19:31:57.375Z,10.03
2018-07-06T19:33:59.416Z,9.87
2018-07-06T19:36:01.475Z,11.07
2018-07-06T19:38:03.516Z,5.70
2018-07-06T19:40:05.528Z,10.77
2018-07-06T19:42:07.636Z,6.77
2018-07-06T19:44:10.338Z,8.03
2018-07-06T19:46:12.489Z,15.70
2018-07-06T19:48:14.521Z,11.77
2018-07-06T19:50:17.044Z,9.17
2018-07-06T19:52:19.084Z,8.93
2018-07-06T19:54:21.138Z,7.83
2018-07-06T19:56:23.247Z,16.30
2018-07-06T19:58:25.702Z,6.63
2018-07-06T20:00:27.833Z,7.63
2018-07-06T20:02:29.928Z,8.50
2018-07-06T20:04:31.980Z,7.50
2018-07-06T20:06:34.024Z,10.57
2018-07-06T20:08:36.053Z,7.80
2018-07-06T20:10:38.174Z,10.50
2018-07-06T20:12:40.229Z,6.03
2018-07-06T20:14:42.298Z,9.80
2018-07-06T20:16:44.527Z,14.00
2018-07-06T20:18:46.714Z,9.83
2018-07-06T20:20:48.956Z,13.17
2018-07-06T20:22:51.024Z,7.40
2018-07-06T20:24:53.044Z,8.40
2018-07-06T20:26:55.138Z,8.57
2018-07-06T20:28:57.240Z,8.57
2018-07-06T20:30:59.224Z,19.87
2018-07-06T20:33:01.276Z,11.73
2018-07-06T20:35:03.367Z,18.60
2018-07-06T20:37:05.501Z,12.40
2018-07-06T20:39:07.555Z,11.40
2018-07-06T20:41:09.645Z,18.63
2018-07-06T20:43:11.738Z,15.23
2018-07-06T20:45:13.870Z,14.90
2018-07-06T20:47:15.984Z,15.90
2018-07-06T20:49:18.009Z,12.57
2018-07-06T20:51:20.109Z,13.33
2018-07-06T20:53:22.320Z,12.60
2018-07-06T20:55:24.452Z,10.53
2018-07-06T20:57:26.630Z,19.00
2018-07-06T20:59:28.647Z,13.80
2018-07-06T21:01:30.674Z,13.10
2018-07-06T21:03:32.787Z,15.37
2018-07-06T21:05:34.804Z,12.20
2018-07-06T21:07:36.919Z,14.03
2018-07-06T21:09:39.194Z,15.33
2018-07-06T21:11:41.242Z,16.43
2018-07-06T21:13:43.303Z,19.87
2018-07-06T21:15:45.476Z,15.83
2018-07-06T21:17:47.526Z,19.27
2018-07-06T21:19:49.670Z,19.73
2018-07-06T21:21:51.724Z,15.40
2018-07-06T21:23:53.774Z,12.00
2018-07-06T21:25:55.822Z,12.00
2018-07-06T21:27:57.848Z,11.70
2018-07-06T21:29:59.861Z,14.23
2018-07-06T21:32:01.916Z,14.10
2018-07-06T21:34:03.954Z,17.50
2018-07-06T21:36:06.068Z,28.17
2018-07-06T21:38:08.392Z,12.53
2018-07-06T21:40:11.347Z,13.70
2018-07-06T21:42:13.419Z,18.97
2018-07-06T21:44:15.444Z,22.03
2018-07-06T21:46:17.684Z,20.57
2018-07-06T21:48:19.888Z,17.73
2018-07-06T21:50:21.944Z,24.60
2018-07-06T21:52:23.960Z,7.97
2018-07-06T21:54:25.975Z,15.37
2018-07-06T21:56:28.006Z,14.87
2018-07-06T21:58:30.126Z,17.27
2018-07-06T22:00:36.627Z,18.60
2018-07-06T22:02:39.388Z,17.53
2018-07-06T22:04:41.844Z,16.90
2018-07-06T22:06:44.138Z,21.87
2018-07-06T22:08:46.202Z,17.30
2018-07-06T22:10:48.258Z,13.77
2018-07-06T22:12:50.337Z,16.50
2018-07-06T22:14:52.488Z,14.60
2018-07-06T22:16:54.588Z,14.17
2018-07-06T22:18:56.613Z,10.53
2018-07-06T22:20:58.772Z,19.03
2018-07-06T22:23:00.868Z,14.37
2018-07-06T22:25:02.903Z,21.33
2018-07-06T22:27:04.969Z,22.00
2018-07-06T22:29:06.996Z,15.93
2018-07-06T22:31:09.029Z,18.97
2018-07-06T22:33:11.062Z,17.30
2018-07-06T22:35:13.077Z,8.73
2018-07-06T22:37:15.148Z,18.83
2018-07-06T22:39:17.220Z,19.50
2018-07-06T22:41:19.300Z,16.87
2018-07-06T22:43:21.445Z,15.37
2018-07-06T22:45:23.516Z,19.90
2018-07-06T22:47:25.652Z,13.80
2018-07-06T22:49:27.695Z,16.33
2018-07-06T22:51:30.013Z,20.80
2018-07-06T22:53:32.175Z,13.87
2018-07-06T22:55:34.304Z,18.37
2018-07-06T22:57:36.355Z,21.07
2018-07-06T22:59:38.392Z,15.93
2018-07-06T23:01:40.417Z,21.70
2018-07-06T23:03:42.440Z,17.77
2018-07-06T23:05:44.442Z,16.43
2018-07-06T23:07:46.473Z,14.90
2018-07-06T23:09:48.505Z,15.17
2018-07-06T23:11:50.540Z,8.17
2018-07-06T23:13:52.641Z,10.07
2018-07-06T23:15:54.676Z,15.23
2018-07-06T23:17:56.729Z,14.87
2018-07-06T23:19:58.769Z,14.80
2018-07-06T23:22:00.822Z,8.77
2018-07-06T23:24:02.850Z,19.43
2018-07-06T23:26:04.857Z,11.10
2018-07-06T23:28:06.901Z,14.87
2018-07-06T23:30:08.962Z,14.50
2018-07-06T23:32:11.030Z,19.83
2018-07-06T23:34:13.116Z,13.43
2018-07-06T23:36:15.176Z,17.13
2018-07-06T23:38:17.256Z,24.47
2018-07-06T23:40:19.658Z,19.30
2018-07-06T23:42:21.688Z,16.27
2018-07-06T23:44:23.803Z,19.40
2018-07-06T23:46:25.856Z,16.63
2018-07-06T23:48:27.885Z,9.50
2018-07-06T23:50:29.887Z,22.33
2018-07-06T23:52:31.953Z,11.87
2018-07-06T23:54:34.041Z,23.70
2018-07-06T23:56:36.053Z,19.57
2018-07-06T23:58:38.092Z,16.30
